Pride Of Cherbourg — VQAA9 — position and weather

sailwx.info

Track history (hours):
 
Tides and Currents Weather Stations Pressure Air Temp Water Temp Dewpoint Dewpoint Depression Visibility Wind Speed Wind Dir Waves Ship Positions

Pride Of Cherbourg

Operator: P&O European Ferries

Last reported at 2013-Nov-02 05:10 UTC. Time now 2017-Mar-24 10:08 UTC.
Position S 41°16' E 174°47'.
Warning: this ship's position is years out of date!

Length 180 m; draft 5 m.

Type: Ship (hazmat cat A). MMSI: 235012190.

Date/timePositionNaut miles runAvg speedWind from/ knotsBaromVisibWave heightAir tempDewpointWater temp
2013-Nov-02 05:10S 41°16' E 174°47'0 0.0
2013-Nov-02 04:31S 41°16' E 174°47'8 3.9
2013-Nov-02 02:34S 41°23' E 174°50'1919.1
2013-Nov-02 01:34S 41°17' E 174°26'16 1.8
2013-Nov-01 16:29S 41°16' E 174°47'0 0.0
2013-Nov-01 15:33S 41°16' E 174°47'8 7.6
2013-Nov-01 14:33S 41°23' E 174°47'1918.7
2013-Nov-01 13:33S 41°16' E 174°24'13 2.5
2013-Nov-01 08:33S 41°22' E 174°38'9 9.2
2013-Nov-01 07:34S 41°16' E 174°47'0 0.0
2013-Nov-01 06:34S 41°16' E 174°47'0 0.0
2013-Nov-01 05:34S 41°16' E 174°47'0 0.0
2013-Nov-01 04:33S 41°16' E 174°47'0 0.0
2013-Nov-01 03:33S 41°16' E 174°47'8 7.7
2013-Nov-01 02:34S 41°23' E 174°47'1818.0
2013-Nov-01 01:33S 41°16' E 174°25'6 1.4
2013-Oct-31 21:28S 41°13' E 174°18'1617.8
2013-Oct-31 20:34S 41°22' E 174°36'10 2.5
2013-Oct-31 16:33S 41°16' E 174°47'0 0.4
2013-Oct-31 15:34S 41°16' E 174°48'9 9.3
2013-Oct-31 14:34S 41°23' E 174°39'18 3.6
2013-Oct-31 09:26S 41°13' E 174°18'1517.3
2013-Oct-31 08:33S 41°21' E 174°35'1111.4
2013-Oct-31 07:33S 41°16' E 174°49'2 1.7
2013-Oct-31 06:33S 41°16' E 174°47'0 0.0
2013-Oct-31 05:33S 41°16' E 174°47'0 0.0
2013-Oct-31 04:34S 41°16' E 174°47'0 0.0
2013-Oct-31 03:33S 41°16' E 174°47'8 7.6
2013-Oct-31 02:34S 41°24' E 174°47'1818.3
2013-Oct-31 01:33S 41°16' E 174°25'6 1.5
2013-Oct-30 21:27S 41°13' E 174°18'1617.9
2013-Oct-30 20:33S 41°21' E 174°36'1010.3
2013-Oct-30 19:34S 41°16' E 174°48'1 0.9
2013-Oct-30 18:33S 41°16' E 174°47'0 0.0
2013-Oct-30 17:33S 41°16' E 174°47'0 0.0
2013-Oct-30 16:30S 41°16' E 174°47'0 0.4
2013-Oct-30 15:33S 41°16' E 174°48'8 8.3
2013-Oct-30 14:33S 41°23' E 174°42'1817.9
2013-Oct-30 13:33S 41°14' E 174°21'2 0.6
2013-Oct-30 09:14S 41°13' E 174°18'1218.3
2013-Oct-30 08:33S 41°19' E 174°32'1414.0
2013-Oct-30 07:34S 41°20' E 174°51'5 5.3
2013-Oct-30 06:34S 41°16' E 174°47'0 0.0
2013-Oct-30 05:34S 41°16' E 174°47'0 0.0
2013-Oct-30 04:34S 41°16' E 174°47'0 0.0
2013-Oct-30 03:34S 41°16' E 174°47'8 7.7
2013-Oct-30 02:34S 41°24' E 174°49'1716.8
2013-Oct-30 01:34S 41°18' E 174°28'9 2.1
2013-Oct-29 21:18S 41°13' E 174°18'1517.5
2013-Oct-29 20:25S 41°21' E 174°36'1213.7
2013-Oct-29 19:34S 41°18' E 174°51'4 3.6
2013-Oct-29 18:32S 41°16' E 174°47'0 0.0
2013-Oct-29 17:29S 41°16' E 174°47'0 0.1
2013-Oct-29 16:33S 41°16' E 174°47'9 8.6
2013-Oct-29 15:33S 41°23' E 174°42'1818.2
2013-Oct-29 14:33S 41°14' E 174°21'2 0.5
2013-Oct-29 10:14S 41°13' E 174°18'1419.3
2013-Oct-29 09:31S 41°20' E 174°34'1313.7
2013-Oct-29 08:33S 41°19' E 174°51'5 4.5
2013-Oct-29 07:33S 41°16' E 174°47'0 0.0
2013-Oct-29 06:33S 41°16' E 174°47'0 0.0
2013-Oct-29 05:33S 41°16' E 174°47'0 0.0
2013-Oct-29 04:33S 41°16' E 174°47'0 0.0
2013-Oct-29 03:34S 41°16' E 174°47'8 7.7
2013-Oct-29 02:34S 41°24' E 174°47'1816.9
2013-Oct-29 01:30S 41°16' E 174°25'6 1.6
2013-Oct-28 21:23S 41°13' E 174°18'1417.0
2013-Oct-28 20:32S 41°20' E 174°34'1313.0
2013-Oct-28 19:33S 41°18' E 174°51'4 3.6
2013-Oct-28 18:33S 41°16' E 174°47'0 0.0
2013-Oct-28 17:33S 41°16' E 174°47'0 0.0
2013-Oct-28 16:33S 41°16' E 174°47'0 0.0
2013-Oct-28 15:33S 41°16' E 174°47'0 0.0
2013-Oct-28 14:33S 41°16' E 174°47'0 0.0
2013-Oct-28 13:33S 41°16' E 174°47'0 0.0
2013-Oct-28 12:33S 41°16' E 174°47'0 0.0
2013-Oct-28 11:33S 41°16' E 174°47'0 0.0
2013-Oct-28 10:33S 41°16' E 174°47'0 0.0
2013-Oct-28 09:33S 41°16' E 174°47'0 0.0
2013-Oct-28 08:33S 41°16' E 174°47'0 0.0
2013-Oct-28 07:33S 41°16' E 174°47'0 0.0
2013-Oct-28 06:33S 41°16' E 174°47'0 0.0
2013-Oct-28 05:33S 41°16' E 174°47'0 0.0
2013-Oct-28 04:33S 41°16' E 174°47'0 0.0
2013-Oct-28 03:33S 41°16' E 174°47'8 7.8
2013-Oct-28 02:33S 41°24' E 174°45'1717.0
2013-Oct-28 01:33S 41°16' E 174°25'17 2.1
2013-Oct-27 17:23S 41°16' E 174°47'0 0.0
2013-Oct-27 16:32S 41°16' E 174°47'0 0.0
2013-Oct-27 15:32S 41°16' E 174°47'0 0.0
2013-Oct-27 14:32S 41°16' E 174°47'0 0.0
2013-Oct-27 13:32S 41°16' E 174°47'0 0.0
2013-Oct-27 12:32S 41°16' E 174°47'0 0.0
2013-Oct-27 11:32S 41°16' E 174°47'0 0.0
2013-Oct-27 10:32S 41°16' E 174°47'0 0.0
2013-Oct-27 09:32S 41°16' E 174°47'0 0.0
2013-Oct-27 08:32S 41°16' E 174°47'0 0.0
2013-Oct-27 07:32S 41°16' E 174°47'0 0.0
2013-Oct-27 06:32S 41°16' E 174°47'0 0.0
2013-Oct-27 05:31S 41°16' E 174°47'0 0.0
2013-Oct-27 04:31S 41°16' E 174°47'0 0.0
2013-Oct-27 03:31S 41°16' E 174°47'0 0.0
2013-Oct-27 02:31S 41°16' E 174°47'0 0.0
2013-Oct-27 01:31S 41°16' E 174°47'0 0.0
2013-Oct-27 00:31S 41°16' E 174°47'0 0.0
2013-Oct-26 23:31S 41°16' E 174°47'0 0.0
2013-Oct-26 22:31S 41°16' E 174°47'0 0.0
2013-Oct-26 21:31S 41°16' E 174°47'0 0.0
2013-Oct-26 20:31S 41°16' E 174°47'0 0.0
2013-Oct-26 19:31S 41°16' E 174°47'0 0.0
2013-Oct-26 18:31S 41°16' E 174°47'0 0.0
2013-Oct-26 17:28S 41°16' E 174°47'0 0.0
2013-Oct-26 16:31S 41°16' E 174°47'0 0.0
2013-Oct-26 15:31S 41°16' E 174°47'0 0.0
2013-Oct-26 14:31S 41°16' E 174°47'0 0.0
2013-Oct-26 13:31S 41°16' E 174°47'0 0.0
2013-Oct-26 12:31S 41°16' E 174°47'0 0.0
2013-Oct-26 11:31S 41°16' E 174°47'0 0.0
2013-Oct-26 10:31S 41°16' E 174°47'0 0.0
2013-Oct-26 09:31S 41°16' E 174°47'0 0.0
2013-Oct-26 08:31S 41°16' E 174°47'0 0.0
2013-Oct-26 07:28S 41°16' E 174°47'0 0.0
2013-Oct-26 06:31S 41°16' E 174°47'0 0.0
2013-Oct-26 05:31S 41°16' E 174°47'0 0.0
2013-Oct-26 04:31S 41°16' E 174°47'0 0.0
2013-Oct-26 03:33S 41°16' E 174°47'8 7.6
2013-Oct-26 02:34S 41°23' E 174°47'1616.4
2013-Oct-26 01:33S 41°16' E 174°27'7 1.9
2013-Oct-25 21:33S 41°13' E 174°18'1615.6
2013-Oct-25 20:34S 41°21' E 174°36'1211.8
2013-Oct-25 19:33S 41°17' E 174°51'3 2.6
2013-Oct-25 18:31S 41°16' E 174°47'0 0.0
2013-Oct-25 17:13S 41°16' E 174°47'0 0.0
2013-Oct-25 16:31S 41°16' E 174°47'0 0.0
2013-Oct-25 15:34S 41°16' E 174°47'8 7.7
2013-Oct-25 14:34S 41°24' E 174°47'1717.2
2013-Oct-25 13:33S 41°16' E 174°26'2 0.5
2013-Oct-25 08:31S 41°18' E 174°29'1717.2
2013-Oct-25 07:34S 41°21' E 174°50'6 5.8
2013-Oct-25 06:33S 41°16' E 174°47'0 0.0
2013-Oct-25 05:30S 41°16' E 174°47'0 0.0
2013-Oct-25 04:33S 41°16' E 174°47'0 0.0
2013-Oct-25 03:33S 41°16' E 174°47'8 7.7
2013-Oct-25 02:34S 41°23' E 174°49'1818.0
2013-Oct-25 01:34S 41°17' E 174°27'7 1.6
2013-Oct-24 21:33S 41°13' E 174°20'1515.0
2013-Oct-24 20:34S 41°21' E 174°37'1110.6
2013-Oct-24 19:34S 41°16' E 174°49'1 1.4
2013-Oct-24 18:31S 41°16' E 174°47'0 0.0
2013-Oct-24 17:28S 41°16' E 174°47'0 0.0
2013-Oct-24 16:31S 41°16' E 174°47'0 0.0
2013-Oct-24 15:33S 41°16' E 174°47'9 8.8
2013-Oct-24 14:34S 41°23' E 174°41'20 3.6
2013-Oct-24 09:06S 41°13' E 174°18'1017.7
2013-Oct-24 08:33S 41°18' E 174°29'1616.5
2013-Oct-24 07:34S 41°21' E 174°50'6 5.6
2013-Oct-24 06:33S 41°16' E 174°47'0 0.0
2013-Oct-24 05:33S 41°16' E 174°47'0 0.0
2013-Oct-24 04:33S 41°16' E 174°47'0 0.0
2013-Oct-24 03:33S 41°16' E 174°47'8 7.9
2013-Oct-24 02:33S 41°24' E 174°45'2020.1
2013-Oct-24 01:33S 41°14' E 174°21'3 0.7
2013-Oct-23 21:29S 41°13' E 174°18'1516.0
2013-Oct-23 20:33S 41°21' E 174°35'1212.3
2013-Oct-23 19:34S 41°17' E 174°51'3 2.9
2013-Oct-23 18:32S 41°16' E 174°47'0 0.0
2013-Oct-23 17:32S 41°16' E 174°47'0 0.0
2013-Oct-23 16:32S 41°16' E 174°47'0 0.0
2013-Oct-23 15:33S 41°16' E 174°47'8 7.8
2013-Oct-23 14:34S 41°24' E 174°46'1918.8
2013-Oct-23 13:34S 41°16' E 174°24'5 1.1
2013-Oct-23 09:04S 41°13' E 174°18'1020.1
2013-Oct-23 08:33S 41°18' E 174°30'1615.8
2013-Oct-23 07:34S 41°17' E 174°51'3 3.2
2013-Oct-23 06:33S 41°16' E 174°47'  
Track history (hours):
 
Tides and Currents Weather Stations Pressure Air Temp Water Temp Dewpoint Dewpoint Depression Visibility Wind Speed Wind Dir Waves Ship Positions

Pride Of Cherbourg

Operator: P&O European Ferries

Last reported at 2013-Nov-02 05:10 UTC. Time now 2017-Mar-24 10:08 UTC.
Position S 41°16' E 174°47'.
Warning: this ship's position is years out of date!

Length 180 m; draft 5 m.

Type: Ship (hazmat cat A). MMSI: 235012190.

Date/timePositionNaut miles runAvg speedWind from/ knotsBaromVisibWave heightAir tempDewpointWater temp
2013-Nov-02 05:10S 41°16' E 174°47'0 0.0
2013-Nov-02 04:31S 41°16' E 174°47'8 3.9
2013-Nov-02 02:34S 41°23' E 174°50'1919.1
2013-Nov-02 01:34S 41°17' E 174°26'16 1.8
2013-Nov-01 16:29S 41°16' E 174°47'0 0.0
2013-Nov-01 15:33S 41°16' E 174°47'8 7.6
2013-Nov-01 14:33S 41°23' E 174°47'1918.7
2013-Nov-01 13:33S 41°16' E 174°24'13 2.5
2013-Nov-01 08:33S 41°22' E 174°38'9 9.2
2013-Nov-01 07:34S 41°16' E 174°47'0 0.0
2013-Nov-01 06:34S 41°16' E 174°47'0 0.0
2013-Nov-01 05:34S 41°16' E 174°47'0 0.0
2013-Nov-01 04:33S 41°16' E 174°47'0 0.0
2013-Nov-01 03:33S 41°16' E 174°47'8 7.7
2013-Nov-01 02:34S 41°23' E 174°47'1818.0
2013-Nov-01 01:33S 41°16' E 174°25'6 1.4
2013-Oct-31 21:28S 41°13' E 174°18'1617.8
2013-Oct-31 20:34S 41°22' E 174°36'10 2.5
2013-Oct-31 16:33S 41°16' E 174°47'0 0.4
2013-Oct-31 15:34S 41°16' E 174°48'9 9.3
2013-Oct-31 14:34S 41°23' E 174°39'18 3.6
2013-Oct-31 09:26S 41°13' E 174°18'1517.3
2013-Oct-31 08:33S 41°21' E 174°35'1111.4
2013-Oct-31 07:33S 41°16' E 174°49'2 1.7
2013-Oct-31 06:33S 41°16' E 174°47'0 0.0
2013-Oct-31 05:33S 41°16' E 174°47'0 0.0
2013-Oct-31 04:34S 41°16' E 174°47'0 0.0
2013-Oct-31 03:33S 41°16' E 174°47'8 7.6
2013-Oct-31 02:34S 41°24' E 174°47'1818.3
2013-Oct-31 01:33S 41°16' E 174°25'6 1.5
2013-Oct-30 21:27S 41°13' E 174°18'1617.9
2013-Oct-30 20:33S 41°21' E 174°36'1010.3
2013-Oct-30 19:34S 41°16' E 174°48'1 0.9
2013-Oct-30 18:33S 41°16' E 174°47'0 0.0
2013-Oct-30 17:33S 41°16' E 174°47'0 0.0
2013-Oct-30 16:30S 41°16' E 174°47'0 0.4
2013-Oct-30 15:33S 41°16' E 174°48'8 8.3
2013-Oct-30 14:33S 41°23' E 174°42'1817.9
2013-Oct-30 13:33S 41°14' E 174°21'2 0.6
2013-Oct-30 09:14S 41°13' E 174°18'1218.3
2013-Oct-30 08:33S 41°19' E 174°32'1414.0
2013-Oct-30 07:34S 41°20' E 174°51'5 5.3
2013-Oct-30 06:34S 41°16' E 174°47'0 0.0
2013-Oct-30 05:34S 41°16' E 174°47'0 0.0
2013-Oct-30 04:34S 41°16' E 174°47'0 0.0
2013-Oct-30 03:34S 41°16' E 174°47'8 7.7
2013-Oct-30 02:34S 41°24' E 174°49'1716.8
2013-Oct-30 01:34S 41°18' E 174°28'9 2.1
2013-Oct-29 21:18S 41°13' E 174°18'1517.5
2013-Oct-29 20:25S 41°21' E 174°36'1213.7
2013-Oct-29 19:34S 41°18' E 174°51'4 3.6
2013-Oct-29 18:32S 41°16' E 174°47'0 0.0
2013-Oct-29 17:29S 41°16' E 174°47'0 0.1
2013-Oct-29 16:33S 41°16' E 174°47'9 8.6
2013-Oct-29 15:33S 41°23' E 174°42'1818.2
2013-Oct-29 14:33S 41°14' E 174°21'2 0.5
2013-Oct-29 10:14S 41°13' E 174°18'1419.3
2013-Oct-29 09:31S 41°20' E 174°34'1313.7
2013-Oct-29 08:33S 41°19' E 174°51'5 4.5
2013-Oct-29 07:33S 41°16' E 174°47'0 0.0
2013-Oct-29 06:33S 41°16' E 174°47'0 0.0
2013-Oct-29 05:33S 41°16' E 174°47'0 0.0
2013-Oct-29 04:33S 41°16' E 174°47'0 0.0
2013-Oct-29 03:34S 41°16' E 174°47'8 7.7
2013-Oct-29 02:34S 41°24' E 174°47'1816.9
2013-Oct-29 01:30S 41°16' E 174°25'6 1.6
2013-Oct-28 21:23S 41°13' E 174°18'1417.0
2013-Oct-28 20:32S 41°20' E 174°34'1313.0
2013-Oct-28 19:33S 41°18' E 174°51'4 3.6
2013-Oct-28 18:33S 41°16' E 174°47'0 0.0
2013-Oct-28 17:33S 41°16' E 174°47'0 0.0
2013-Oct-28 16:33S 41°16' E 174°47'0 0.0
2013-Oct-28 15:33S 41°16' E 174°47'0 0.0
2013-Oct-28 14:33S 41°16' E 174°47'0 0.0
2013-Oct-28 13:33S 41°16' E 174°47'0 0.0
2013-Oct-28 12:33S 41°16' E 174°47'0 0.0
2013-Oct-28 11:33S 41°16' E 174°47'0 0.0
2013-Oct-28 10:33S 41°16' E 174°47'0 0.0
2013-Oct-28 09:33S 41°16' E 174°47'0 0.0
2013-Oct-28 08:33S 41°16' E 174°47'0 0.0
2013-Oct-28 07:33S 41°16' E 174°47'0 0.0
2013-Oct-28 06:33S 41°16' E 174°47'0 0.0
2013-Oct-28 05:33S 41°16' E 174°47'0 0.0
2013-Oct-28 04:33S 41°16' E 174°47'0 0.0
2013-Oct-28 03:33S 41°16' E 174°47'8 7.8
2013-Oct-28 02:33S 41°24' E 174°45'1717.0
2013-Oct-28 01:33S 41°16' E 174°25'17 2.1
2013-Oct-27 17:23S 41°16' E 174°47'0 0.0
2013-Oct-27 16:32S 41°16' E 174°47'0 0.0
2013-Oct-27 15:32S 41°16' E 174°47'0 0.0
2013-Oct-27 14:32S 41°16' E 174°47'0 0.0
2013-Oct-27 13:32S 41°16' E 174°47'0 0.0
2013-Oct-27 12:32S 41°16' E 174°47'0 0.0
2013-Oct-27 11:32S 41°16' E 174°47'0 0.0
2013-Oct-27 10:32S 41°16' E 174°47'0 0.0
2013-Oct-27 09:32S 41°16' E 174°47'0 0.0
2013-Oct-27 08:32S 41°16' E 174°47'0 0.0
2013-Oct-27 07:32S 41°16' E 174°47'0 0.0
2013-Oct-27 06:32S 41°16' E 174°47'0 0.0
2013-Oct-27 05:31S 41°16' E 174°47'0 0.0
2013-Oct-27 04:31S 41°16' E 174°47'0 0.0
2013-Oct-27 03:31S 41°16' E 174°47'0 0.0
2013-Oct-27 02:31S 41°16' E 174°47'0 0.0
2013-Oct-27 01:31S 41°16' E 174°47'0 0.0
2013-Oct-27 00:31S 41°16' E 174°47'0 0.0
2013-Oct-26 23:31S 41°16' E 174°47'0 0.0
2013-Oct-26 22:31S 41°16' E 174°47'0 0.0
2013-Oct-26 21:31S 41°16' E 174°47'0 0.0
2013-Oct-26 20:31S 41°16' E 174°47'0 0.0
2013-Oct-26 19:31S 41°16' E 174°47'0 0.0
2013-Oct-26 18:31S 41°16' E 174°47'0 0.0
2013-Oct-26 17:28S 41°16' E 174°47'0 0.0
2013-Oct-26 16:31S 41°16' E 174°47'0 0.0
2013-Oct-26 15:31S 41°16' E 174°47'0 0.0
2013-Oct-26 14:31S 41°16' E 174°47'0 0.0
2013-Oct-26 13:31S 41°16' E 174°47'0 0.0
2013-Oct-26 12:31S 41°16' E 174°47'0 0.0
2013-Oct-26 11:31S 41°16' E 174°47'0 0.0
2013-Oct-26 10:31S 41°16' E 174°47'0 0.0
2013-Oct-26 09:31S 41°16' E 174°47'0 0.0
2013-Oct-26 08:31S 41°16' E 174°47'0 0.0
2013-Oct-26 07:28S 41°16' E 174°47'0 0.0
2013-Oct-26 06:31S 41°16' E 174°47'0 0.0
2013-Oct-26 05:31S 41°16' E 174°47'0 0.0
2013-Oct-26 04:31S 41°16' E 174°47'0 0.0
2013-Oct-26 03:33S 41°16' E 174°47'8 7.6
2013-Oct-26 02:34S 41°23' E 174°47'1616.4
2013-Oct-26 01:33S 41°16' E 174°27'7 1.9
2013-Oct-25 21:33S 41°13' E 174°18'1615.6
2013-Oct-25 20:34S 41°21' E 174°36'1211.8
2013-Oct-25 19:33S 41°17' E 174°51'3 2.6
2013-Oct-25 18:31S 41°16' E 174°47'0 0.0
2013-Oct-25 17:13S 41°16' E 174°47'0 0.0
2013-Oct-25 16:31S 41°16' E 174°47'0 0.0
2013-Oct-25 15:34S 41°16' E 174°47'8 7.7
2013-Oct-25 14:34S 41°24' E 174°47'1717.2
2013-Oct-25 13:33S 41°16' E 174°26'2 0.5
2013-Oct-25 08:31S 41°18' E 174°29'1717.2
2013-Oct-25 07:34S 41°21' E 174°50'6 5.8
2013-Oct-25 06:33S 41°16' E 174°47'0 0.0
2013-Oct-25 05:30S 41°16' E 174°47'0 0.0
2013-Oct-25 04:33S 41°16' E 174°47'0 0.0
2013-Oct-25 03:33S 41°16' E 174°47'8 7.7
2013-Oct-25 02:34S 41°23' E 174°49'1818.0
2013-Oct-25 01:34S 41°17' E 174°27'7 1.6
2013-Oct-24 21:33S 41°13' E 174°20'1515.0
2013-Oct-24 20:34S 41°21' E 174°37'1110.6
2013-Oct-24 19:34S 41°16' E 174°49'1 1.4
2013-Oct-24 18:31S 41°16' E 174°47'0 0.0
2013-Oct-24 17:28S 41°16' E 174°47'0 0.0
2013-Oct-24 16:31S 41°16' E 174°47'0 0.0
2013-Oct-24 15:33S 41°16' E 174°47'9 8.8
2013-Oct-24 14:34S 41°23' E 174°41'20 3.6
2013-Oct-24 09:06S 41°13' E 174°18'1017.7
2013-Oct-24 08:33S 41°18' E 174°29'1616.5
2013-Oct-24 07:34S 41°21' E 174°50'6 5.6
2013-Oct-24 06:33S 41°16' E 174°47'0 0.0
2013-Oct-24 05:33S 41°16' E 174°47'0 0.0
2013-Oct-24 04:33S 41°16' E 174°47'0 0.0
2013-Oct-24 03:33S 41°16' E 174°47'8 7.9
2013-Oct-24 02:33S 41°24' E 174°45'2020.1
2013-Oct-24 01:33S 41°14' E 174°21'3 0.7
2013-Oct-23 21:29S 41°13' E 174°18'1516.0
2013-Oct-23 20:33S 41°21' E 174°35'1212.3
2013-Oct-23 19:34S 41°17' E 174°51'3 2.9
2013-Oct-23 18:32S 41°16' E 174°47'0 0.0
2013-Oct-23 17:32S 41°16' E 174°47'0 0.0
2013-Oct-23 16:32S 41°16' E 174°47'0 0.0
2013-Oct-23 15:33S 41°16' E 174°47'8 7.8
2013-Oct-23 14:34S 41°24' E 174°46'1918.8
2013-Oct-23 13:34S 41°16' E 174°24'5 1.1
2013-Oct-23 09:04S 41°13' E 174°18'1020.1
2013-Oct-23 08:33S 41°18' E 174°30'1615.8
2013-Oct-23 07:34S 41°17' E 174°51'3 3.2
2013-Oct-23 06:33S 41°16' E 174°47'  

Dump ship's entire track history